Time;durP1;ratioP1;P1;durP2;ratioP2;P2;SDS_P1;SDS_P2;PMS_P1;PMS_P2;Temp;Humidity;BMP_temperature;BMP_pressure;BME280_temperature;BME280_humidity;BME280_pressure;Samples;Min_cycle;Max_cycle;Signal;HPM_P1;HPM_P2
2022/08/06 00:01:55;;;;;;;3.22;1.10;;;;;;;23.34;39.39;102523.03;5034048;28;20026;-71
2022/08/06 00:04:20;;;;;;;2.92;1.00;;;;;;;23.33;39.49;102521.31;5032985;28;20071;-71
2022/08/06 00:06:45;;;;;;;3.42;1.05;;;;;;;23.31;39.20;102520.59;5033978;28;20388;-71
2022/08/06 00:09:11;;;;;;;4.77;1.20;;;;;;;23.29;39.02;102520.72;5033537;28;20028;-71
2022/08/06 00:11:40;;;;;;;4.15;1.00;;;;;;;23.26;39.33;102515.63;5033643;28;20270;-71
2022/08/06 00:14:06;;;;;;;4.13;1.23;;;;;;;23.28;39.40;102526.16;5032653;28;20034;-71
2022/08/06 00:16:32;;;;;;;2.75;1.02;;;;;;;23.27;39.23;102525.28;5033046;28;20025;-71
2022/08/06 00:18:57;;;;;;;2.20;0.90;;;;;;;23.26;39.33;102530.75;5033718;28;20358;-72
2022/08/06 00:21:22;;;;;;;4.50;1.10;;;;;;;23.24;39.45;102522.03;5033315;28;20160;-72
2022/08/06 00:23:48;;;;;;;3.95;1.00;;;;;;;23.24;39.32;102530.00;5032993;28;20477;-71
2022/08/06 00:26:15;;;;;;;3.83;1.00;;;;;;;23.22;39.44;102534.59;5033544;28;20111;-72
2022/08/06 00:28:41;;;;;;;4.68;1.20;;;;;;;23.20;39.41;102532.06;5033676;28;20037;-71
2022/08/06 00:31:07;;;;;;;3.80;1.20;;;;;;;23.20;39.39;102541.88;5032503;28;20029;-71
2022/08/06 00:33:33;;;;;;;2.80;1.00;;;;;;;23.18;38.99;102537.50;5033436;28;20271;-71
2022/08/06 00:35:58;;;;;;;3.50;1.17;;;;;;;23.17;39.13;102541.13;5033184;28;20032;-72
2022/08/06 00:38:23;;;;;;;4.50;1.50;;;;;;;23.13;39.27;102539.69;5032574;28;20025;-72
2022/08/06 00:40:49;;;;;;;2.70;1.00;;;;;;;23.16;39.11;102538.56;5033106;28;20310;-71
2022/08/06 00:43:15;;;;;;;3.85;1.05;;;;;;;23.13;38.99;102529.03;5033012;28;20354;-72
2022/08/06 00:45:40;;;;;;;5.65;1.30;;;;;;;23.11;39.33;102541.56;5032440;28;20171;-72
2022/08/06 00:48:14;;;;;;;3.78;1.25;;;;;;;23.11;39.14;102538.91;5032934;28;20067;-71
2022/08/06 00:50:40;;;;;;;3.33;1.13;;;;;;;23.09;39.16;102545.34;5033040;28;20460;-71
2022/08/06 00:53:05;;;;;;;4.15;1.10;;;;;;;23.08;38.89;102544.50;5032326;28;20105;-71
2022/08/06 00:55:31;;;;;;;2.63;1.00;;;;;;;23.07;39.05;102550.75;5033266;28;20029;-71
2022/08/06 00:57:56;;;;;;;5.07;1.20;;;;;;;23.06;39.28;102546.38;5033148;28;20083;-71
2022/08/06 01:00:22;;;;;;;4.13;1.30;;;;;;;23.06;39.18;102550.84;5031989;28;20450;-71
2022/08/06 01:02:50;;;;;;;3.37;1.20;;;;;;;23.05;39.07;102559.78;5032921;28;20025;-71
2022/08/06 01:05:25;;;;;;;3.08;1.13;;;;;;;23.03;39.01;102565.22;5032734;28;20270;-71
2022/08/06 01:07:54;;;;;;;4.43;1.13;;;;;;;23.03;39.10;102569.69;5032170;28;20021;-70
2022/08/06 01:10:22;;;;;;;3.42;1.20;;;;;;;23.01;39.33;102573.31;5032556;28;20116;-70
2022/08/06 01:12:47;;;;;;;3.80;1.20;;;;;;;23.01;38.95;102575.13;5032136;28;20468;-70
2022/08/06 01:15:12;;;;;;;3.95;1.33;;;;;;;23.00;39.06;102568.09;5032516;28;20037;-71
2022/08/06 01:18:06;;;;;;;6.70;1.30;;;;;;;22.98;38.93;102573.53;5032595;28;20025;-70
2022/08/06 01:20:51;;;;;;;5.35;1.90;;;;;;;22.98;39.00;102575.34;5029538;28;20394;-70
2022/08/06 01:23:44;;;;;;;5.05;1.42;;;;;;;22.96;38.97;102572.81;5032352;28;20100;-71
2022/08/06 01:26:38;;;;;;;2.90;1.10;;;;;;;22.96;39.31;102586.09;5032168;28;20503;-71
2022/08/06 01:29:27;;;;;;;3.03;1.10;;;;;;;22.95;39.22;102580.91;5014444;28;20459;-70
2022/08/06 01:32:06;;;;;;;4.03;1.13;;;;;;;22.93;39.19;102581.03;5032434;28;20034;-71
2022/08/06 01:34:48;;;;;;;4.25;1.20;;;;;;;22.92;39.37;102578.47;5031934;28;20113;-70
2022/08/06 01:37:29;;;;;;;3.65;1.20;;;;;;;22.89;39.24;102578.69;5032497;28;20057;-70
2022/08/06 01:40:00;;;;;;;4.93;1.40;;;;;;;22.89;38.97;102571.59;5032227;28;20140;-70
2022/08/06 01:42:29;;;;;;;3.35;1.20;;;;;;;22.88;39.22;102571.72;5031668;28;20112;-71
2022/08/06 01:45:03;;;;;;;3.00;1.38;;;;;;;22.89;39.20;102578.69;5032542;28;20032;-71
2022/08/06 01:47:31;;;;;;;3.28;1.10;;;;;;;22.88;39.08;102585.00;5032590;28;20030;-71
2022/08/06 01:50:01;;;;;;;5.40;1.30;;;;;;;22.86;39.15;102586.91;5031683;28;20075;-71
2022/08/06 01:52:29;;;;;;;3.10;1.17;;;;;;;22.85;39.20;102580.75;5032647;28;20052;-70
2022/08/06 01:54:58;;;;;;;3.90;1.38;;;;;;;22.85;39.42;102580.75;5031495;28;20707;-71
2022/08/06 01:57:26;;;;;;;2.83;1.05;;;;;;;22.84;39.00;102584.34;5032531;28;20128;-71
2022/08/06 01:59:54;;;;;;;3.95;1.23;;;;;;;22.83;39.39;102591.50;5032424;28;20021;-71
2022/08/06 02:02:23;;;;;;;4.47;1.30;;;;;;;22.83;39.27;102586.19;5031367;28;20028;-70
2022/08/06 02:04:52;;;;;;;4.00;1.20;;;;;;;22.83;39.18;102593.31;5032340;28;20022;-71
2022/08/06 02:07:22;;;;;;;3.58;1.20;;;;;;;22.80;38.99;102585.56;5031860;28;20044;-70
2022/08/06 02:09:50;;;;;;;2.97;1.30;;;;;;;22.80;39.16;102588.22;5031384;28;20037;-70
2022/08/06 02:12:19;;;;;;;3.53;1.50;;;;;;;22.78;39.07;102584.81;5031987;28;20128;-71
2022/08/06 02:14:49;;;;;;;3.90;1.35;;;;;;;22.78;39.05;102582.16;5032415;28;20026;-70
2022/08/06 02:17:17;;;;;;;4.47;1.48;;;;;;;22.79;39.25;102589.16;5031258;28;20021;-70
2022/08/06 02:19:48;;;;;;;4.20;1.30;;;;;;;22.77;39.33;102581.31;5032002;28;20388;-71
2022/08/06 02:22:15;;;;;;;3.45;1.20;;;;;;;22.75;39.12;102588.56;5031970;28;20104;-71
2022/08/06 02:24:42;;;;;;;4.57;1.25;;;;;;;22.75;39.33;102593.88;5031019;28;20055;-71
2022/08/06 02:27:10;;;;;;;3.58;1.30;;;;;;;22.74;39.22;102589.50;5031904;28;20021;-70
2022/08/06 02:29:39;;;;;;;4.82;1.20;;;;;;;22.74;39.05;102586.00;5032261;28;20034;-71
2022/08/06 02:32:04;;;;;;;4.38;1.20;;;;;;;22.74;39.33;102586.00;5031063;28;20029;-70
2022/08/06 02:34:30;;;;;;;3.17;1.35;;;;;;;22.74;39.40;102592.16;5031970;28;20021;-71
2022/08/06 02:37:01;;;;;;;4.10;1.33;;;;;;;22.72;39.46;102594.09;5031802;28;20021;-70
2022/08/06 02:39:31;;;;;;;5.43;1.25;;;;;;;22.71;39.02;102581.75;5035347;28;20487;-70
2022/08/06 02:42:10;;;;;;;3.17;1.10;;;;;;;22.69;38.90;102591.66;5035610;28;20469;-71
2022/08/06 02:44:44;;;;;;;7.00;1.40;;;;;;;22.68;38.95;102586.47;5034762;28;20053;-71
2022/08/06 02:47:14;;;;;;;;;;;;;;;22.66;39.00;102591.88;5035543;28;20472;-70
2022/08/06 02:49:47;;;;;;;2.97;1.20;;;;;;;22.65;39.11;102590.19;5035299;28;19919;-70
2022/08/06 02:52:18;;;;;;;2.85;1.27;;;;;;;22.64;38.70;102580.53;5034358;28;20430;-71
2022/08/06 02:54:52;;;;;;;2.92;1.20;;;;;;;22.61;38.85;102588.72;5035417;28;20453;-71
2022/08/06 02:57:24;;;;;;;3.63;1.30;;;;;;;22.60;38.66;102582.53;5035015;28;20025;-70
2022/08/06 02:59:53;;;;;;;4.65;1.20;;;;;;;22.61;38.81;102591.38;5034682;28;20055;-70
2022/08/06 03:02:21;;;;;;;4.38;1.40;;;;;;;22.60;38.88;102589.69;5035022;28;20029;-70
2022/08/06 03:04:49;;;;;;;4.32;1.42;;;;;;;22.58;38.82;102591.59;5035232;28;20053;-71
2022/08/06 03:07:16;;;;;;;4.75;1.40;;;;;;;22.58;38.63;102596.91;5034053;28;20512;-70
2022/08/06 03:09:46;;;;;;;3.60;1.23;;;;;;;22.57;38.90;102593.44;5035093;28;20033;-71
2022/08/06 03:12:13;;;;;;;4.13;1.40;;;;;;;22.54;38.92;102591.00;5033831;28;20021;-71
2022/08/06 03:14:40;;;;;;;4.18;1.40;;;;;;;22.55;38.96;102594.50;5034844;28;20159;-70
2022/08/06 03:17:07;;;;;;;3.30;1.20;;;;;;;22.54;38.95;102601.63;5034963;28;20017;-70
2022/08/06 03:19:37;;;;;;;4.13;1.63;;;;;;;22.53;38.92;102596.41;5034105;28;20033;-70
2022/08/06 03:22:04;;;;;;;2.75;1.20;;;;;;;22.53;39.30;102604.38;5034435;28;20167;-71
2022/08/06 03:24:35;;;;;;;3.30;1.30;;;;;;;22.52;39.12;102602.69;5034670;28;20097;-70
2022/08/06 03:27:03;;;;;;;4.50;1.35;;;;;;;22.50;39.03;102599.28;5033871;28;20034;-70
2022/08/06 03:29:30;;;;;;;2.97;1.30;;;;;;;22.50;38.84;102607.25;5034765;28;20447;-70
2022/08/06 03:31:56;;;;;;;4.00;1.25;;;;;;;22.50;38.78;102613.41;5034754;28;20037;-70
2022/08/06 03:34:22;;;;;;;3.88;1.40;;;;;;;22.48;38.97;102604.72;5033663;28;20021;-71
2022/08/06 03:36:48;;;;;;;3.50;1.27;;;;;;;22.48;39.27;102610.03;5034571;28;20022;-70
2022/08/06 03:39:15;;;;;;;4.53;1.42;;;;;;;22.46;38.74;102614.59;5033794;28;20415;-70
2022/08/06 03:41:47;;;;;;;2.42;1.20;;;;;;;22.44;38.93;102605.88;5033842;28;20041;-71
2022/08/06 03:44:12;;;;;;;4.00;1.30;;;;;;;22.45;39.05;102619.06;5034057;28;20053;-70
2022/08/06 03:46:46;;;;;;;3.22;1.27;;;;;;;22.45;38.93;102618.22;5034589;28;20053;-70
2022/08/06 03:49:50;;;;;;;3.88;1.30;;;;;;;22.43;38.88;102609.50;5033333;28;20470;-70
2022/08/06 03:52:29;;;;;;;2.97;1.40;;;;;;;22.43;39.03;102615.69;5021911;28;20175;-70
2022/08/06 03:55:02;;;;;;;3.80;1.38;;;;;;;22.42;38.95;102623.75;5033561;28;20021;-70
2022/08/06 03:57:37;;;;;;;3.13;1.10;;;;;;;22.41;39.21;102625.56;5034116;28;20029;-70
2022/08/06 04:00:04;;;;;;;3.38;1.30;;;;;;;22.40;39.08;102629.16;5033728;28;20167;-70
2022/08/06 04:02:37;;;;;;;2.92;1.10;;;;;;;22.39;38.89;102638.09;5033206;28;20477;-70
2022/08/06 04:05:03;;;;;;;3.25;1.27;;;;;;;22.38;38.96;102633.75;5034053;28;20038;-70
2022/08/06 04:07:30;;;;;;;4.82;1.50;;;;;;;22.37;39.20;102634.69;5034159;28;20425;-70
2022/08/06 04:09:56;;;;;;;4.32;1.30;;;;;;;22.38;38.84;102640.84;5033155;28;20049;-70
2022/08/06 04:12:24;;;;;;;3.65;1.50;;;;;;;22.37;38.87;102634.69;5033570;28;20119;-70
2022/08/06 04:14:50;;;;;;;3.65;1.20;;;;;;;22.36;39.27;102648.94;5034225;28;20033;-70
2022/08/06 04:17:16;;;;;;;4.70;1.27;;;;;;;22.35;39.11;102644.59;5032921;28;20061;-70
2022/08/06 04:19:48;;;;;;;3.03;1.23;;;;;;;22.36;38.97;102646.28;5033860;28;20032;-70
2022/08/06 04:22:14;;;;;;;3.00;1.38;;;;;;;22.36;38.95;102645.44;5033327;28;20033;-70
2022/08/06 04:24:39;;;;;;;3.78;1.30;;;;;;;22.36;39.23;102651.59;5032868;28;20029;-70
2022/08/06 04:27:06;;;;;;;4.07;1.30;;;;;;;22.34;38.89;102647.38;5033147;28;20025;-71
2022/08/06 04:29:34;;;;;;;3.97;1.20;;;;;;;22.34;39.09;102647.38;5032960;28;20385;-70
2022/08/06 04:32:01;;;;;;;4.57;1.60;;;;;;;22.33;39.05;102654.47;5033332;28;20104;-71
2022/08/06 04:34:28;;;;;;;3.53;1.20;;;;;;;22.33;39.27;102656.28;5033512;28;20025;-70
2022/08/06 04:36:56;;;;;;;2.95;1.10;;;;;;;22.32;39.00;102655.44;5032822;28;20083;-70
2022/08/06 04:39:25;;;;;;;3.47;1.38;;;;;;;22.32;39.10;102654.56;5032768;28;20461;-71
2022/08/06 04:41:50;;;;;;;4.13;1.50;;;;;;;22.32;39.12;102660.75;5033560;28;20037;-70
2022/08/06 04:44:16;;;;;;;5.10;1.25;;;;;;;22.28;38.88;102649.44;5032437;28;20021;-70
2022/08/06 04:46:48;;;;;;;3.33;1.42;;;;;;;22.29;39.14;102655.63;5033381;28;20036;-70
2022/08/06 04:49:13;;;;;;;3.25;1.40;;;;;;;22.29;39.20;102650.31;5032997;28;20045;-70
2022/08/06 04:51:39;;;;;;;3.15;1.20;;;;;;;22.29;39.09;102658.28;5032503;28;20055;-70
2022/08/06 04:54:05;;;;;;;3.58;1.30;;;;;;;22.30;39.07;102667.97;5032690;28;20448;-70
2022/08/06 04:56:31;;;;;;;3.53;1.10;;;;;;;22.30;39.10;102665.31;5033228;28;20029;-70
2022/08/06 04:58:56;;;;;;;3.53;1.35;;;;;;;22.29;39.31;102668.91;5032392;28;20017;-70
2022/08/06 05:01:24;;;;;;;3.92;1.30;;;;;;;22.31;39.07;102677.63;5032418;28;20057;-70
2022/08/06 05:03:49;;;;;;;4.20;1.27;;;;;;;22.32;39.12;102668.72;5033063;28;20017;-70
2022/08/06 05:06:24;;;;;;;3.40;1.40;;;;;;;22.30;39.46;102660.00;5031927;28;20372;-70
2022/08/06 05:08:54;;;;;;;3.45;1.42;;;;;;;22.31;39.39;102674.97;5032870;28;20342;-70
2022/08/06 05:12:03;;;;;;;3.72;1.27;;;;;;;22.32;39.41;102678.47;5032519;28;20461;-70
2022/08/06 05:14:35;;;;;;;3.67;1.30;;;;;;;22.28;39.53;102676.00;5027639;28;20046;-70
2022/08/06 05:17:02;;;;;;;3.83;1.50;;;;;;;22.31;39.48;102680.28;5032349;28;20067;-70
2022/08/06 05:19:57;;;;;;;3.90;1.40;;;;;;;22.33;39.64;102680.19;5032143;28;20033;-70
2022/08/06 05:22:23;;;;;;;3.80;1.30;;;;;;;22.34;39.44;102682.72;5017248;28;20511;-70
2022/08/06 05:24:49;;;;;;;4.68;1.30;;;;;;;22.34;39.64;102693.34;5032758;28;20029;-70
2022/08/06 05:27:15;;;;;;;3.20;1.23;;;;;;;22.37;39.68;102687.84;5031450;28;20022;-71
2022/08/06 05:29:43;;;;;;;3.33;1.27;;;;;;;22.36;39.86;102688.78;5032601;28;20040;-70
2022/08/06 05:32:11;;;;;;;3.58;1.23;;;;;;;22.36;39.57;102690.59;5032302;28;20369;-72
2022/08/06 05:34:37;;;;;;;3.28;1.20;;;;;;;22.38;39.97;102693.97;5031756;28;20083;-70
2022/08/06 05:37:02;;;;;;;3.92;1.27;;;;;;;22.39;40.08;102701.84;5032324;28;20115;-70
2022/08/06 05:39:27;;;;;;;2.97;1.20;;;;;;;22.40;39.83;102703.56;5032323;28;20057;-71
2022/08/06 05:41:53;;;;;;;4.07;1.20;;;;;;;22.41;39.92;102694.63;5031574;28;20465;-70
2022/08/06 05:44:18;;;;;;;4.97;1.50;;;;;;;22.40;39.93;102698.25;5031993;28;20057;-70
2022/08/06 05:46:56;;;;;;;3.93;1.30;;;;;;;22.40;40.02;102698.25;5032628;28;20278;-70
2022/08/06 05:49:28;;;;;;;3.30;1.27;;;;;;;22.42;39.85;102698.13;5032204;28;20275;-70
2022/08/06 05:52:17;;;;;;;3.55;1.13;;;;;;;22.43;40.25;102705.13;5032523;28;20481;-70
2022/08/06 05:54:58;;;;;;;3.90;1.38;;;;;;;22.44;40.23;102702.34;5031723;28;20119;-70
2022/08/06 05:57:37;;;;;;;4.18;1.20;;;;;;;22.47;40.24;102696.00;5032430;28;20053;-70
2022/08/06 06:00:09;;;;;;;2.88;1.10;;;;;;;22.49;40.22;102704.69;5032158;28;20040;-70
2022/08/06 06:02:36;;;;;;;4.22;1.35;;;;;;;22.50;40.17;102705.56;5031659;28;20029;-70
2022/08/06 06:05:02;;;;;;;2.80;1.23;;;;;;;22.51;40.27;102704.59;5031940;28;20026;-70
2022/08/06 06:07:29;;;;;;;4.28;1.50;;;;;;;22.52;40.42;102708.94;5032409;28;20022;-70
2022/08/06 06:09:55;;;;;;;3.65;1.30;;;;;;;22.53;40.36;102715.97;5031625;28;20131;-70
2022/08/06 06:12:22;;;;;;;4.60;1.48;;;;;;;22.52;40.65;102708.94;5033196;28;20025;-70
2022/08/06 06:14:48;;;;;;;3.47;1.10;;;;;;;22.54;40.35;102702.59;5036129;28;20025;-71
2022/08/06 06:17:51;;;;;;;4.50;1.60;;;;;;;22.55;40.90;102717.53;5035103;28;20025;-70
2022/08/06 06:20:23;;;;;;;3.40;1.27;;;;;;;22.59;41.08;102712.88;5035786;28;20036;-70
2022/08/06 06:23:00;;;;;;;3.08;1.17;;;;;;;22.60;40.58;102710.09;5035196;28;20400;-70
2022/08/06 06:25:40;;;;;;;3.63;1.20;;;;;;;22.61;40.67;102709.13;5035826;28;20030;-71
2022/08/06 06:28:19;;;;;;;3.38;1.25;;;;;;;22.64;40.98;102713.41;5035782;28;20024;-70
2022/08/06 06:31:00;;;;;;;3.75;1.35;;;;;;;22.66;40.81;102715.94;5035198;28;20382;-71
2022/08/06 06:34:04;;;;;;;2.60;1.05;;;;;;;22.69;40.96;102721.03;5035714;28;20021;-70
2022/08/06 06:36:50;;;;;;;2.75;1.10;;;;;;;22.69;41.19;102726.38;5022806;28;20037;-70
2022/08/06 06:39:27;;;;;;;5.65;1.73;;;;;;;22.71;41.36;102719.97;5034624;28;20029;-70
2022/08/06 06:42:15;;;;;;;3.97;1.30;;;;;;;22.73;41.34;102725.16;5035644;28;20118;-70
2022/08/06 06:45:13;;;;;;;4.38;1.27;;;;;;;22.75;40.95;102726.75;5034827;28;20032;-71
2022/08/06 06:47:54;;;;;;;3.95;1.42;;;;;;;22.77;41.01;102719.53;5026323;28;20124;-71
2022/08/06 06:50:25;;;;;;;4.28;1.92;;;;;;;22.79;41.07;102730.03;5034461;28;20033;-70
2022/08/06 06:52:52;;;;;;;3.28;1.30;;;;;;;22.81;41.39;102730.78;5035440;28;20037;-71
2022/08/06 06:55:38;;;;;;;3.72;1.30;;;;;;;22.84;41.42;102727.91;5035021;28;20067;-71
2022/08/06 06:58:18;;;;;;;4.90;2.40;;;;;;;22.78;40.81;102731.88;5034274;28;20488;-70
2022/08/06 07:00:44;;;;;;;6.57;2.50;;;;;;;22.56;41.17;102729.03;5035174;28;20496;-70
2022/08/06 07:03:10;;;;;;;5.05;1.77;;;;;;;22.34;42.04;102730.53;5034857;28;20026;-71
2022/08/06 07:05:38;;;;;;;4.97;1.50;;;;;;;22.12;42.45;102725.84;5034459;28;20015;-70
2022/08/06 07:08:05;;;;;;;4.05;1.30;;;;;;;21.95;43.18;102734.94;5034458;28;20137;-71
2022/08/06 07:10:34;;;;;;;6.22;1.50;;;;;;;21.82;43.59;102732.28;5035173;28;20049;-67
2022/08/06 07:13:00;;;;;;;4.72;1.38;;;;;;;21.71;43.79;102735.69;5034046;28;20029;-70
2022/08/06 07:15:26;;;;;;;4.10;1.30;;;;;;;21.60;44.04;102732.88;5035057;28;20033;-69
2022/08/06 07:17:53;;;;;;;3.08;1.30;;;;;;;21.53;44.08;102742.19;5034881;28;20373;-70
2022/08/06 07:20:21;;;;;;;4.45;1.42;;;;;;;21.51;43.77;102746.75;5033935;28;20067;-70
2022/08/06 07:22:48;;;;;;;6.22;1.33;;;;;;;21.47;43.60;102750.53;5034709;28;20025;-70
2022/08/06 07:25:14;;;;;;;5.18;1.30;;;;;;;21.47;43.84;102748.72;5034669;28;20037;-70
2022/08/06 07:27:46;;;;;;;4.10;1.00;;;;;;;21.49;43.25;102756.59;5034596;28;20025;-69
2022/08/06 07:30:13;;;;;;;4.22;1.35;;;;;;;21.46;43.26;102757.63;5034501;28;20028;-69
2022/08/06 07:32:39;;;;;;;2.22;0.95;;;;;;;21.46;43.86;102757.63;5033687;28;20571;-68
2022/08/06 07:35:07;;;;;;;3.15;1.05;;;;;;;21.47;43.81;102759.31;5034444;28;20052;-68
2022/08/06 07:37:34;;;;;;;4.65;1.58;;;;;;;21.50;42.86;102766.28;5034353;28;20069;-68
2022/08/06 07:40:02;;;;;;;2.88;0.68;;;;;;;21.48;42.65;102765.50;5033212;28;20053;-71
2022/08/06 07:42:28;;;;;;;3.47;1.00;;;;;;;21.48;42.85;102760.19;5034273;28;20480;-72
2022/08/06 07:45:01;;;;;;;4.82;1.17;;;;;;;21.49;43.07;102765.44;5034308;28;20021;-70
2022/08/06 07:47:38;;;;;;;2.95;0.90;;;;;;;21.51;42.83;102766.16;5034093;28;20433;-71
2022/08/06 07:50:06;;;;;;;3.25;0.88;;;;;;;21.54;42.55;102771.28;5033987;28;20059;-70
2022/08/06 07:52:32;;;;;;;2.55;0.70;;;;;;;21.56;42.64;102764.06;5034144;28;20457;-68
2022/08/06 07:55:01;;;;;;;3.92;0.98;;;;;;;21.57;42.99;102772.88;5033636;28;20033;-68
2022/08/06 07:57:28;;;;;;;4.90;1.25;;;;;;;21.56;43.16;102774.66;5034335;28;20430;-69
2022/08/06 08:00:17;;;;;;;2.30;0.80;;;;;;;21.54;42.27;102773.09;5034335;28;20037;-67
2022/08/06 08:06:17;;;;;;;3.88;0.93;;;;;;;21.52;42.89;102772.31;5033126;28;20408;-68
2022/08/06 08:08:12;;;;;;;5.28;2.20;;;;;;;21.51;43.12;102779.44;5033384;28;20036;-68
2022/08/06 08:10:37;;;;;;;3.95;1.10;;;;;;;21.53;42.28;102776.69;5034015;28;20021;-69
2022/08/06 08:13:03;;;;;;;3.20;1.00;;;;;;;21.53;42.49;102774.03;5033704;28;20030;-67
2022/08/06 08:15:31;;;;;;;2.55;0.80;;;;;;;21.54;42.88;102775.75;5033181;28;20021;-67
2022/08/06 08:17:57;;;;;;;3.35;0.82;;;;;;;21.55;42.56;102780.06;5034011;28;20026;-67
2022/08/06 08:20:24;;;;;;;3.28;0.90;;;;;;;21.55;42.78;102782.72;5033360;28;20040;-71
2022/08/06 08:22:49;;;;;;;2.97;0.63;;;;;;;21.62;43.36;102781.38;5033031;28;20108;-71
2022/08/06 08:25:15;;;;;;;2.65;0.75;;;;;;;21.77;44.15;102779.50;5033605;28;20496;-71
2022/08/06 08:27:40;;;;;;;4.60;1.05;;;;;;;21.93;44.07;102774.03;5033881;28;20036;-73
2022/08/06 08:30:06;;;;;;;2.57;0.90;;;;;;;22.07;43.66;102773.94;5032595;28;20025;-75
2022/08/06 08:32:31;;;;;;;2.90;1.00;;;;;;;22.23;43.27;102772.91;5033469;28;20033;-71
2022/08/06 08:34:57;;;;;;;3.53;0.80;;;;;;;22.42;42.76;102764.53;5032656;28;20052;-75
2022/08/06 08:37:22;;;;;;;3.17;0.93;;;;;;;22.46;43.19;102771.31;5033096;28;20087;-75
2022/08/06 08:39:47;;;;;;;3.72;0.95;;;;;;;22.52;42.81;102768.25;5034437;28;20045;-75
2022/08/06 08:42:39;;;;;;;22.48;3.10;;;;;;;22.58;41.16;102765.16;5033316;28;20453;-77
2022/08/06 08:45:15;;;;;;;6.03;1.50;;;;;;;22.53;39.64;102771.78;5037458;28;20033;-77
2022/08/06 08:47:45;;;;;;;3.47;1.10;;;;;;;22.39;39.24;102767.41;5035760;28;20079;-79
2022/08/06 08:50:11;;;;;;;4.38;0.90;;;;;;;22.23;39.46;102773.75;5032455;28;20067;-81
2022/08/06 08:52:39;;;;;;;4.25;0.80;;;;;;;22.10;40.43;102773.72;5033634;28;20388;-81
2022/08/06 08:55:11;;;;;;;5.55;0.90;;;;;;;22.04;40.14;102778.63;5032904;28;20028;-79
2022/08/06 08:57:36;;;;;;;2.35;0.65;;;;;;;21.98;40.08;102773.72;5032553;28;20034;-80
2022/08/06 09:00:05;;;;;;;3.40;0.70;;;;;;;21.96;40.15;102780.94;5033159;28;20021;-79
2022/08/06 09:02:31;;;;;;;6.05;1.02;;;;;;;21.91;40.45;102776.78;5034248;28;20469;-78
2022/08/06 09:05:00;;;;;;;2.97;0.85;;;;;;;21.90;39.80;102780.41;5034045;28;20036;-81
2022/08/06 09:07:28;;;;;;;3.38;0.82;;;;;;;21.91;38.81;102784.75;5034424;28;20028;-79
2022/08/06 09:09:54;;;;;;;3.13;0.60;;;;;;;21.97;37.95;102783.50;5033850;28;20033;-78
2022/08/06 09:12:20;;;;;;;2.50;0.70;;;;;;;22.00;37.91;102785.06;5031846;28;20072;-73
2022/08/06 09:14:46;;;;;;;2.75;0.70;;;;;;;22.04;37.65;102789.22;5032917;28;20029;-77
2022/08/06 09:17:12;;;;;;;3.03;1.08;;;;;;;22.13;38.23;102791.28;5032526;28;20017;-72
2022/08/06 09:19:41;;;;;;;2.90;0.80;;;;;;;22.18;38.29;102791.81;5031970;28;20040;-76
2022/08/06 09:22:07;;;;;;;4.40;1.08;;;;;;;22.24;37.93;102785.22;5033605;28;20025;-74
2022/08/06 09:24:33;;;;;;;5.82;0.90;;;;;;;22.21;38.12;102780.97;5033910;28;20044;-75
2022/08/06 09:27:09;;;;;;;5.97;1.00;;;;;;;22.15;37.13;102796.47;5032277;28;20025;-72
2022/08/06 09:29:47;;;;;;;3.05;0.77;;;;;;;22.07;37.68;102789.03;5032721;28;20473;-70
2022/08/06 09:32:12;;;;;;;2.78;0.80;;;;;;;22.00;37.10;102787.72;5032135;28;20030;-75
2022/08/06 09:34:44;;;;;;;1.60;0.60;;;;;;;21.86;37.35;102789.53;5034740;28;20025;-78
2022/08/06 09:37:10;;;;;;;2.22;0.70;;;;;;;21.81;36.26;102788.97;5032872;28;20278;-72
2022/08/06 09:39:40;;;;;;;3.88;0.80;;;;;;;21.78;36.34;102788.31;5031927;28;20042;-74
2022/08/06 09:42:07;;;;;;;2.78;0.93;;;;;;;21.76;36.85;102791.06;5032721;28;20030;-74
2022/08/06 09:44:33;;;;;;;2.08;0.60;;;;;;;21.78;38.01;102789.19;5032888;28;20018;-77
2022/08/06 09:47:00;;;;;;;3.03;1.00;;;;;;;21.81;38.81;102793.41;5034368;28;20350;-76
2022/08/06 09:49:25;;;;;;;4.63;0.85;;;;;;;21.85;39.17;102792.28;5036675;28;20026;-77
2022/08/06 09:51:50;;;;;;;2.42;1.20;;;;;;;21.88;39.01;102792.06;5036557;28;20028;-76
2022/08/06 09:54:16;;;;;;;4.93;0.80;;;;;;;21.90;39.01;102788.38;5035651;28;20520;-73
2022/08/06 09:56:47;;;;;;;1.73;0.60;;;;;;;21.99;38.90;102797.50;5037354;28;20357;-76
2022/08/06 09:59:15;;;;;;;3.70;0.80;;;;;;;22.13;37.81;102798.38;5036600;28;20049;-74
2022/08/06 10:01:47;;;;;;;3.58;0.60;;;;;;;22.19;36.80;102800.59;5035650;28;20476;-72
2022/08/06 10:04:32;;;;;;;3.30;0.77;;;;;;;22.15;36.70;102799.97;5036886;28;20026;-73
2022/08/06 10:07:01;;;;;;;2.63;0.85;;;;;;;22.15;36.77;102796.47;5036565;28;20552;-75
2022/08/06 10:09:27;;;;;;;2.30;0.60;;;;;;;22.18;36.91;102796.28;5036609;28;20029;-74
2022/08/06 10:11:53;;;;;;;2.13;0.68;;;;;;;22.17;37.33;102790.09;5038081;28;20508;-74
2022/08/06 10:14:26;;;;;;;1.88;0.60;;;;;;;22.16;38.21;102790.19;5035081;28;20484;-74
2022/08/06 10:17:04;;;;;;;2.75;0.70;;;;;;;22.13;38.49;102791.28;5036274;28;20025;-74
2022/08/06 10:19:30;;;;;;;2.78;0.80;;;;;;;22.16;37.80;102785.75;5036231;28;20428;-73
2022/08/06 10:22:06;;;;;;;4.35;1.00;;;;;;;22.20;36.52;102789.88;5035319;28;20461;-72
2022/08/06 10:24:35;;;;;;;1.38;0.60;;;;;;;22.23;36.32;102787.03;5037679;28;20029;-72
2022/08/06 10:27:01;;;;;;;1.08;0.50;;;;;;;22.24;34.63;102780.75;5035893;28;20087;-74
2022/08/06 10:29:27;;;;;;;1.98;0.40;;;;;;;22.28;34.34;102776.09;5035335;28;20017;-75
2022/08/06 10:31:53;;;;;;;2.75;0.60;;;;;;;22.36;34.76;102778.25;5036027;28;20033;-75
2022/08/06 10:34:30;;;;;;;3.95;0.70;;;;;;;22.38;34.95;102771.00;5036078;28;20032;-74
2022/08/06 10:37:02;;;;;;;3.40;0.75;;;;;;;22.42;35.07;102772.50;5035616;28;20026;-72
2022/08/06 10:39:34;;;;;;;3.10;0.73;;;;;;;22.41;34.35;102765.50;5035457;28;20076;-69
2022/08/06 10:42:04;;;;;;;3.13;0.80;;;;;;;22.38;34.93;102750.63;5035220;28;20021;-69
2022/08/06 10:44:30;;;;;;;3.55;0.60;;;;;;;22.40;32.31;102761.16;5034714;28;20087;-68
2022/08/06 10:46:55;;;;;;;2.80;0.70;;;;;;;22.44;31.78;102757.31;5035641;28;20055;-69
2022/08/06 10:49:21;;;;;;;1.77;0.50;;;;;;;22.45;32.91;102756.38;5034648;28;20112;-71
2022/08/06 10:51:50;;;;;;;2.42;0.57;;;;;;;22.51;32.57;102763.91;5036905;28;20271;-75
2022/08/06 10:54:16;;;;;;;0.55;0.40;;;;;;;22.58;32.96;102754.53;5036920;28;20036;-74
2022/08/06 10:56:42;;;;;;;3.10;0.95;;;;;;;22.69;33.03;102756.44;5034642;28;20025;-74
2022/08/06 10:59:07;;;;;;;1.73;0.70;;;;;;;22.78;32.32;102757.56;5034674;28;20036;-72
2022/08/06 11:01:47;;;;;;;4.95;0.60;;;;;;;22.87;32.57;102762.22;5036597;28;20042;-71
2022/08/06 11:04:31;;;;;;;2.53;0.60;;;;;;;22.96;32.39;102758.09;5034574;28;20197;-72
2022/08/06 11:07:19;;;;;;;1.90;0.60;;;;;;;23.04;33.01;102761.03;5035490;28;20036;-74
2022/08/06 11:10:38;;;;;;;1.02;0.40;;;;;;;23.13;32.80;102756.88;5050745;28;20519;-71
2022/08/06 11:13:29;;;;;;;2.60;0.60;;;;;;;23.20;32.75;102752.81;4993902;28;20405;-71
2022/08/06 11:15:57;;;;;;;3.45;0.82;;;;;;;23.26;32.80;102748.88;5034203;28;20037;-74
2022/08/06 11:18:22;;;;;;;1.67;0.47;;;;;;;23.33;33.04;102744.78;5034724;28;20056;-75
2022/08/06 11:20:49;;;;;;;1.48;0.50;;;;;;;23.40;33.11;102753.16;5035330;28;20072;-76
2022/08/06 11:23:18;;;;;;;1.38;0.50;;;;;;;23.44;33.17;102759.94;5035136;28;20423;-72
2022/08/06 11:25:44;;;;;;;2.55;0.50;;;;;;;23.47;33.15;102752.59;5034017;28;20374;-72
2022/08/06 11:28:12;;;;;;;1.85;0.60;;;;;;;23.51;32.81;102746.09;5034688;28;20048;-73
2022/08/06 11:30:58;;;;;;;2.28;0.50;;;;;;;23.53;32.22;102754.78;5034992;28;20026;-74
2022/08/06 11:33:32;;;;;;;4.35;0.75;;;;;;;23.55;32.25;102750.19;5034100;28;20053;-73
2022/08/06 11:36:03;;;;;;;1.85;0.40;;;;;;;23.55;32.89;102747.53;5034788;28;20078;-73
2022/08/06 11:38:47;;;;;;;2.17;0.52;;;;;;;23.55;33.44;102742.22;5034002;28;20541;-71
2022/08/06 11:41:29;;;;;;;1.63;0.50;;;;;;;23.61;33.68;102745.41;5033975;28;20057;-72
2022/08/06 11:43:54;;;;;;;0.93;0.47;;;;;;;23.68;34.14;102741.28;5034506;28;20033;-72